Time;durP1;ratioP1;P1;durP2;ratioP2;P2;SDS_P1;SDS_P2;PMS_P1;PMS_P2;Temp;Humidity;BMP_temperature;BMP_pressure;BME280_temperature;BME280_humidity;BME280_pressure;Samples;Min_cycle;Max_cycle;Signal;HPM_P1;HPM_P2
2023/03/09 00:00:30;;;;;;;6.55;4.60;;;;;;;11.68;76.30;100800.72;5046767;28;20115;-85
2023/03/09 00:02:55;;;;;;;8.45;4.80;;;;;;;11.85;76.26;100819.88;5069968;28;20028;-85
2023/03/09 00:05:21;;;;;;;5.72;4.38;;;;;;;11.88;76.25;100822.66;5055913;28;20032;-85
2023/03/09 00:07:47;;;;;;;7.72;4.88;;;;;;;11.77;76.30;100788.13;5055521;28;20036;-85
2023/03/09 00:10:13;;;;;;;7.32;4.80;;;;;;;11.89;76.07;100803.53;5053864;28;20090;-86
2023/03/09 00:12:40;;;;;;;6.47;4.78;;;;;;;11.89;75.69;100793.06;5055757;28;20028;-85
2023/03/09 00:15:06;;;;;;;6.80;4.60;;;;;;;11.72;76.01;100768.66;5055499;28;20115;-85
2023/03/09 00:17:32;;;;;;;6.93;4.60;;;;;;;11.74;75.80;100773.16;5053687;28;20033;-85
2023/03/09 00:20:14;;;;;;;5.95;4.68;;;;;;;11.63;76.03;100760.38;5070765;28;20020;-85
2023/03/09 00:22:40;;;;;;;6.15;4.55;;;;;;;11.84;76.38;100800.66;5058656;28;20040;-85
2023/03/09 00:25:06;;;;;;;5.90;4.50;;;;;;;11.85;75.82;100801.56;5055280;28;20029;-85
2023/03/09 00:27:32;;;;;;;7.32;5.00;;;;;;;11.78;76.27;100784.66;5054365;28;20713;-85
2023/03/09 00:29:59;;;;;;;6.18;4.40;;;;;;;11.87;76.10;100795.56;5073292;28;20183;-85
2023/03/09 00:32:24;;;;;;;6.40;4.50;;;;;;;11.65;76.03;100761.34;5073355;28;20036;-85
2023/03/09 00:34:50;;;;;;;6.35;4.70;;;;;;;11.85;76.13;100783.25;5072014;28;20572;-85
2023/03/09 00:37:16;;;;;;;7.03;4.35;;;;;;;11.68;76.38;100767.63;5073168;28;20497;-85
2023/03/09 00:39:41;;;;;;;7.25;4.25;;;;;;;11.69;76.17;100758.06;5052968;28;20028;-85
2023/03/09 00:42:07;;;;;;;7.18;4.97;;;;;;;11.86;76.16;100770.25;5051057;28;20060;-85
2023/03/09 00:44:32;;;;;;;5.88;4.38;;;;;;;11.29;75.86;100685.50;5053391;28;20478;-85
2023/03/09 00:46:58;;;;;;;6.68;4.50;;;;;;;11.86;76.05;100782.44;5054278;28;20024;-85
2023/03/09 00:49:24;;;;;;;7.20;4.10;;;;;;;11.66;76.01;100742.22;5073607;28;20086;-84
2023/03/09 00:51:49;;;;;;;7.13;4.30;;;;;;;11.83;76.20;100767.47;5054497;28;20036;-85
2023/03/09 00:54:15;;;;;;;5.93;4.50;;;;;;;11.46;76.24;100707.25;5072857;28;20486;-85
2023/03/09 00:56:41;;;;;;;6.47;4.40;;;;;;;11.78;76.11;100759.41;5071748;28;20042;-85
2023/03/09 00:59:07;;;;;;;5.82;4.40;;;;;;;11.84;76.23;100771.91;5073326;28;20111;-85
2023/03/09 01:01:33;;;;;;;5.18;4.15;;;;;;;11.83;76.21;100762.22;5051797;28;20119;-86
2023/03/09 01:03:58;;;;;;;5.18;4.15;;;;;;;11.89;76.09;100773.03;5055258;28;20494;-86
2023/03/09 01:06:24;;;;;;;5.90;4.47;;;;;;;11.62;75.74;100720.25;5072353;28;20056;-86
2023/03/09 01:08:50;;;;;;;6.60;3.95;;;;;;;11.87;76.25;100768.53;5067708;28;20034;-85
2023/03/09 01:11:17;;;;;;;6.97;4.00;;;;;;;11.63;76.52;100740.34;5038054;28;20024;-85
2023/03/09 01:13:43;;;;;;;6.63;4.40;;;;;;;11.78;76.41;100764.63;5071296;28;20044;-86
2023/03/09 01:16:08;;;;;;;;;;;;;;;11.86;76.30;100758.91;5054060;28;20036;-85
2023/03/09 01:18:34;;;;;;;5.28;3.92;;;;;;;11.82;75.96;100752.59;5051027;28;19912;-85
2023/03/09 01:21:00;;;;;;;5.55;4.10;;;;;;;11.43;76.17;100691.38;5054045;28;20028;-85
2023/03/09 01:23:26;;;;;;;5.50;4.05;;;;;;;11.81;76.37;100750.81;5050630;28;20072;-86
2023/03/09 01:25:51;;;;;;;;;;;;;;;11.85;76.10;100746.63;5051496;28;20045;-85
2023/03/09 01:28:17;;;;;;;5.43;3.47;;;;;;;11.58;75.76;100695.66;5053841;28;20367;-85
2023/03/09 01:30:43;;;;;;;5.40;3.95;;;;;;;11.45;76.09;100677.59;5050852;28;20486;-85
2023/03/09 01:33:08;;;;;;;5.93;4.07;;;;;;;11.69;75.70;100706.66;5062504;28;20108;-85
2023/03/09 01:35:34;;;;;;;6.50;4.07;;;;;;;11.82;75.55;100723.81;5059648;28;20294;-85
2023/03/09 01:37:59;;;;;;;4.88;3.72;;;;;;;11.50;75.54;100677.81;5053994;28;20070;-85
2023/03/09 01:40:27;;;;;;;5.60;4.10;;;;;;;11.60;75.81;100694.03;5070876;28;20055;-85
2023/03/09 01:42:54;;;;;;;6.22;4.30;;;;;;;11.48;75.92;100669.88;5057555;28;20115;-85
2023/03/09 01:45:22;;;;;;;5.55;4.05;;;;;;;11.85;75.69;100746.63;5053881;28;20112;-85
2023/03/09 01:47:49;;;;;;;6.15;4.13;;;;;;;11.65;75.67;100702.09;5070745;28;20042;-85
2023/03/09 01:50:15;;;;;;;7.78;4.22;;;;;;;11.95;75.98;100743.66;5053745;28;20486;-85
2023/03/09 01:52:43;;;;;;;5.38;3.75;;;;;;;11.69;75.43;100704.03;5070571;28;20119;-85
2023/03/09 01:55:15;;;;;;;5.72;4.00;;;;;;;11.61;75.58;100693.19;5045129;28;20515;-85
2023/03/09 01:57:49;;;;;;;6.25;4.00;;;;;;;11.91;75.71;100737.38;5052777;28;20028;-84
2023/03/09 02:00:20;;;;;;;5.50;3.60;;;;;;;11.92;75.85;100738.28;5053416;28;20024;-85
2023/03/09 02:02:48;;;;;;;5.57;3.65;;;;;;;11.90;75.51;100738.22;5053599;28;20047;-85
2023/03/09 02:05:19;;;;;;;6.35;4.22;;;;;;;11.84;75.60;100716.94;5050950;28;20047;-85
2023/03/09 02:07:46;;;;;;;5.35;4.00;;;;;;;11.89;75.49;100727.66;5053813;28;20029;-85
2023/03/09 02:10:18;;;;;;;4.85;3.60;;;;;;;11.90;75.42;100729.47;5052244;28;20492;-85
2023/03/09 02:12:47;;;;;;;4.80;3.88;;;;;;;11.80;75.52;100731.59;5069207;28;20482;-85
2023/03/09 02:15:13;;;;;;;5.32;3.60;;;;;;;11.64;75.80;100692.47;5053357;28;20036;-85
2023/03/09 02:17:38;;;;;;;4.50;3.72;;;;;;;11.86;75.78;100743.19;5069663;28;20093;-84
2023/03/09 02:20:19;;;;;;;4.60;3.65;;;;;;;11.73;75.73;100720.78;5070392;28;20037;-85
2023/03/09 02:22:45;;;;;;;5.50;4.00;;;;;;;11.77;75.37;100733.19;5054167;28;20103;-85
2023/03/09 02:25:20;;;;;;;;;;;;;;;11.94;75.20;100758.47;5052841;28;20103;-85
2023/03/09 02:27:46;;;;;;;6.03;3.63;;;;;;;11.90;75.77;100764.38;5068829;28;19952;-85
2023/03/09 02:30:12;;;;;;;5.10;3.80;;;;;;;11.92;75.49;100769.69;5053097;28;20265;-84
2023/03/09 02:32:38;;;;;;;5.32;3.85;;;;;;;11.71;75.72;100732.88;5053285;28;20029;-84
2023/03/09 02:35:09;;;;;;;6.22;4.30;;;;;;;11.67;75.86;100739.69;5052306;28;20564;-85
2023/03/09 02:37:37;;;;;;;5.75;3.85;;;;;;;11.85;75.74;100764.94;5070468;28;20455;-85
2023/03/09 02:40:28;;;;;;;6.28;3.67;;;;;;;11.85;75.81;100763.22;5050152;28;20489;-85
2023/03/09 02:42:54;;;;;;;4.80;3.67;;;;;;;11.69;75.90;100731.91;5052836;28;20127;-85
2023/03/09 02:45:21;;;;;;;4.00;3.55;;;;;;;11.55;75.85;100713.81;5069229;28;20537;-84
2023/03/09 02:47:47;;;;;;;5.18;3.63;;;;;;;11.58;75.99;100716.59;5053539;28;20074;-86
2023/03/09 02:50:14;;;;;;;5.03;3.90;;;;;;;11.75;75.64;100742.69;5068785;28;20043;-85
2023/03/09 02:52:39;;;;;;;4.18;3.47;;;;;;;11.51;75.64;100708.34;5070491;28;20020;-86
2023/03/09 02:55:06;;;;;;;4.90;3.60;;;;;;;11.86;75.64;100764.13;5070447;28;20456;-87
2023/03/09 02:57:33;;;;;;;5.30;3.60;;;;;;;11.64;75.85;100726.47;5045641;28;20747;-85
2023/03/09 02:59:58;;;;;;;5.68;4.00;;;;;;;11.72;75.97;100745.13;5052868;28;20040;-84
2023/03/09 03:02:24;;;;;;;3.97;3.38;;;;;;;11.57;75.90;100735.69;5048401;28;20032;-83
2023/03/09 03:04:49;;;;;;;5.07;3.60;;;;;;;11.75;75.93;100758.38;5065953;28;20024;-85
2023/03/09 03:07:15;;;;;;;5.88;3.70;;;;;;;11.71;76.03;100746.84;5046768;28;20115;-85
2023/03/09 03:09:41;;;;;;;4.55;3.63;;;;;;;11.76;75.81;100765.38;5070596;28;20052;-84
2023/03/09 03:12:06;;;;;;;4.60;3.60;;;;;;;11.80;75.69;100769.94;5070828;28;20028;-84
2023/03/09 03:14:32;;;;;;;4.30;3.45;;;;;;;11.50;75.66;100712.69;5069324;28;20067;-84
2023/03/09 03:16:57;;;;;;;5.93;3.80;;;;;;;11.80;75.39;100762.09;5048777;28;20028;-84
2023/03/09 03:19:23;;;;;;;4.78;3.42;;;;;;;11.81;76.10;100777.00;5070675;28;20056;-84
2023/03/09 03:21:49;;;;;;;5.88;3.75;;;;;;;11.67;75.64;100754.47;5051268;28;20051;-85
2023/03/09 03:24:15;;;;;;;4.28;3.63;;;;;;;11.70;75.60;100760.75;5070888;28;20052;-84
2023/03/09 03:26:41;;;;;;;;;;;;;;;11.81;75.82;100774.38;5070248;28;20047;-86
2023/03/09 03:29:07;;;;;;;6.10;3.72;;;;;;;11.67;75.67;100757.97;5035138;28;19916;-86
2023/03/09 03:31:32;;;;;;;4.55;3.53;;;;;;;11.71;75.87;100765.16;5050985;28;20033;-85
2023/03/09 03:33:58;;;;;;;4.63;3.42;;;;;;;11.60;75.81;100750.66;5068974;28;20505;-85
2023/03/09 03:36:24;;;;;;;4.78;3.45;;;;;;;11.74;76.00;100775.75;5050450;28;20024;-86
2023/03/09 03:38:49;;;;;;;4.65;3.70;;;;;;;11.34;75.85;100708.41;5068163;28;20029;-85
2023/03/09 03:41:15;;;;;;;5.38;3.97;;;;;;;11.37;75.90;100699.84;5069639;28;20463;-85
2023/03/09 03:43:40;;;;;;;5.30;3.80;;;;;;;11.55;75.79;100742.56;5068876;28;20024;-86
2023/03/09 03:46:06;;;;;;;5.20;3.47;;;;;;;11.72;75.58;100758.22;5068320;28;20035;-85
2023/03/09 03:48:31;;;;;;;8.38;3.85;;;;;;;11.55;75.84;100731.22;5069853;28;20029;-86
2023/03/09 03:50:57;;;;;;;5.68;3.80;;;;;;;11.59;75.71;100738.41;5052530;28;20113;-86
2023/03/09 03:53:23;;;;;;;4.75;3.40;;;;;;;11.76;75.96;100766.28;5068586;28;20559;-85
2023/03/09 03:55:48;;;;;;;4.50;3.20;;;;;;;11.75;75.66;100772.34;5067070;28;20486;-85
2023/03/09 03:58:14;;;;;;;4.10;3.55;;;;;;;11.65;75.57;100743.94;5049285;28;20119;-85
2023/03/09 04:00:39;;;;;;;4.82;3.40;;;;;;;11.66;75.80;100742.22;5068559;28;20532;-85
2023/03/09 04:03:05;;;;;;;5.25;4.05;;;;;;;11.57;75.95;100727.84;5067627;28;20021;-85
2023/03/09 04:05:31;;;;;;;6.82;3.60;;;;;;;11.74;75.67;100752.22;5068545;28;20486;-85
2023/03/09 04:07:57;;;;;;;5.13;3.63;;;;;;;11.30;75.74;100687.28;5065940;28;20041;-85
2023/03/09 04:10:23;;;;;;;5.15;3.72;;;;;;;11.61;75.52;100732.41;5052304;28;20162;-85
2023/03/09 04:12:50;;;;;;;4.15;3.28;;;;;;;11.63;75.53;100734.22;5070529;28;20059;-84
2023/03/09 04:15:16;;;;;;;4.50;3.63;;;;;;;11.75;75.96;100753.16;5068039;28;20056;-85
2023/03/09 04:17:42;;;;;;;4.65;3.55;;;;;;;11.42;75.81;100695.72;5064094;28;20542;-85
2023/03/09 04:20:09;;;;;;;3.83;3.13;;;;;;;11.49;75.61;100710.88;5049086;28;20119;-85
2023/03/09 04:22:35;;;;;;;4.07;3.40;;;;;;;11.52;76.19;100718.91;5068826;28;20077;-84
2023/03/09 04:25:00;;;;;;;4.30;3.65;;;;;;;11.70;75.59;100739.81;5052287;28;20111;-84
2023/03/09 04:27:26;;;;;;;4.70;3.67;;;;;;;11.73;75.79;100749.56;5051206;28;20033;-84
2023/03/09 04:29:51;;;;;;;7.03;3.88;;;;;;;11.71;75.89;100746.84;5069186;28;20028;-84
2023/03/09 04:32:17;;;;;;;9.38;3.97;;;;;;;11.70;75.72;100742.44;5068783;28;20029;-84
2023/03/09 04:34:42;;;;;;;5.68;3.90;;;;;;;11.74;75.77;100749.59;5055930;28;20068;-84
2023/03/09 04:37:08;;;;;;;5.63;3.90;;;;;;;11.50;75.62;100720.53;5070198;28;20020;-84
2023/03/09 04:39:33;;;;;;;4.65;3.53;;;;;;;11.72;75.82;100748.63;5068795;28;20482;-84
2023/03/09 04:41:59;;;;;;;4.95;3.80;;;;;;;11.49;75.53;100702.16;5070026;28;20021;-84
2023/03/09 04:44:24;;;;;;;4.40;3.53;;;;;;;11.26;75.58;100662.72;5069313;28;20043;-84
2023/03/09 04:46:50;;;;;;;4.68;3.55;;;;;;;11.69;75.80;100734.53;5052329;28;20116;-84
2023/03/09 04:49:15;;;;;;;5.38;3.55;;;;;;;11.43;75.73;100700.16;5071781;28;20036;-84
2023/03/09 04:51:41;;;;;;;4.88;3.50;;;;;;;11.63;75.57;100732.50;5073903;28;20112;-85
2023/03/09 04:54:07;;;;;;;5.00;3.70;;;;;;;11.29;75.83;100667.19;5052896;28;20063;-85
2023/03/09 04:56:32;;;;;;;5.07;3.67;;;;;;;11.70;75.79;100747.66;5054125;28;20040;-85
2023/03/09 04:58:58;;;;;;;4.18;3.15;;;;;;;11.26;75.70;100672.25;5068413;28;20287;-83
2023/03/09 05:01:23;;;;;;;6.22;3.70;;;;;;;11.30;75.59;100680.34;5072280;28;20406;-83
2023/03/09 05:03:49;;;;;;;4.43;3.65;;;;;;;11.72;75.60;100750.34;5068354;28;20025;-83
2023/03/09 05:06:14;;;;;;;5.78;4.13;;;;;;;11.52;75.72;100723.25;5074007;28;20029;-85
2023/03/09 05:08:40;;;;;;;4.70;3.50;;;;;;;11.48;75.73;100723.91;5073563;28;20474;-84
2023/03/09 05:11:06;;;;;;;4.53;3.40;;;;;;;11.66;76.11;100752.66;5071686;28;20048;-83
2023/03/09 05:13:31;;;;;;;4.72;3.67;;;;;;;11.57;75.69;100729.56;5060163;28;20036;-85
2023/03/09 05:15:57;;;;;;;6.07;3.95;;;;;;;11.56;75.69;100731.31;5073417;28;20840;-84
2023/03/09 05:18:22;;;;;;;5.88;4.05;;;;;;;11.62;75.92;100738.56;5073255;28;20033;-84
2023/03/09 05:20:48;;;;;;;5.05;3.63;;;;;;;11.64;75.53;100736.94;5055095;28;20048;-84
2023/03/09 05:23:14;;;;;;;5.82;3.60;;;;;;;11.43;75.81;100704.47;5055140;28;20140;-84
2023/03/09 05:25:39;;;;;;;4.80;3.70;;;;;;;11.64;75.62;100741.22;5051901;28;20430;-84
2023/03/09 05:28:05;;;;;;;3.97;3.53;;;;;;;11.66;76.09;100753.56;5052961;28;20032;-85
2023/03/09 05:30:31;;;;;;;4.65;3.47;;;;;;;11.51;75.66;100722.31;5048642;28;20757;-85
2023/03/09 05:32:57;;;;;;;3.97;3.25;;;;;;;11.49;75.88;100726.56;5047176;28;20097;-85
2023/03/09 05:35:23;;;;;;;4.88;3.50;;;;;;;11.29;75.93;100702.06;5052990;28;20675;-85
2023/03/09 05:37:48;;;;;;;4.78;3.65;;;;;;;11.59;75.76;100744.50;5050998;28;20490;-86
2023/03/09 05:40:17;;;;;;;6.22;3.95;;;;;;;11.61;76.07;100755.94;5039553;28;20017;-84
2023/03/09 05:42:43;;;;;;;5.15;3.78;;;;;;;11.07;75.70;100654.75;5052033;28;20032;-84
2023/03/09 05:45:09;;;;;;;5.65;4.10;;;;;;;11.52;76.04;100738.94;5053213;28;20043;-85
2023/03/09 05:47:35;;;;;;;5.07;4.00;;;;;;;11.34;75.70;100713.63;5051705;28;20494;-84
2023/03/09 05:50:00;;;;;;;3.85;3.13;;;;;;;11.56;75.65;100753.94;5051799;28;20467;-83
2023/03/09 05:52:26;;;;;;;5.70;4.03;;;;;;;11.49;76.27;100755.34;5042257;28;20040;-83
2023/03/09 05:54:51;;;;;;;4.88;3.80;;;;;;;11.50;75.71;100735.34;5052498;28;20032;-85
2023/03/09 05:57:17;;;;;;;5.43;3.47;;;;;;;11.41;75.90;100720.09;5050045;28;20033;-85
2023/03/09 05:59:43;;;;;;;4.47;3.60;;;;;;;11.59;75.94;100760.22;5034573;28;20132;-85
2023/03/09 06:02:08;;;;;;;4.30;3.35;;;;;;;11.32;75.79;100712.66;5051127;28;20056;-85
2023/03/09 06:04:34;;;;;;;5.90;3.78;;;;;;;11.65;75.91;100764.84;5044160;28;20067;-85
2023/03/09 06:07:00;;;;;;;4.70;3.53;;;;;;;11.51;75.70;100755.44;5027225;28;20044;-85
2023/03/09 06:09:25;;;;;;;4.18;3.20;;;;;;;11.51;76.18;100761.53;5049162;28;20033;-85
2023/03/09 06:11:51;;;;;;;5.35;3.60;;;;;;;11.45;75.75;100749.88;5040705;28;20052;-86
2023/03/09 06:14:16;;;;;;;4.22;3.42;;;;;;;11.32;75.79;100733.56;5049615;28;20075;-86
2023/03/09 06:16:42;;;;;;;5.32;3.58;;;;;;;11.54;75.94;100764.34;5049428;28;20589;-84
2023/03/09 06:19:08;;;;;;;4.18;3.30;;;;;;;11.48;76.06;100756.19;5039776;28;20561;-84
2023/03/09 06:21:35;;;;;;;4.82;3.78;;;;;;;11.44;76.18;100755.94;5045136;28;20064;-84
2023/03/09 06:24:01;;;;;;;4.68;3.35;;;;;;;11.45;76.11;100750.81;5050990;28;20068;-88
2023/03/09 06:26:29;;;;;;;4.80;3.65;;;;;;;11.61;75.75;100776.88;5039702;28;20530;-90
2023/03/09 06:28:59;;;;;;;4.63;3.70;;;;;;;11.49;75.90;100757.06;5051685;28;20041;-91
2023/03/09 06:31:26;;;;;;;4.45;3.42;;;;;;;11.47;75.98;100743.00;5046251;28;20033;-90
2023/03/09 06:33:51;;;;;;;4.45;3.40;;;;;;;11.53;75.91;100757.28;5046536;28;20029;-89
2023/03/09 06:36:19;;;;;;;4.15;3.33;;;;;;;11.32;75.64;100717.00;5043144;28;20037;-89
2023/03/09 06:38:45;;;;;;;4.47;3.33;;;;;;;11.56;76.03;100761.78;5042266;28;20442;-89
2023/03/09 06:41:15;;;;;;;4.72;3.50;;;;;;;11.62;76.04;100769.94;5047230;28;20101;-89
2023/03/09 06:43:45;;;;;;;4.15;3.05;;;;;;;11.51;75.78;100751.09;5041325;28;20072;-92
2023/03/09 06:46:28;;;;;;;5.82;3.90;;;;;;;11.61;75.71;100771.66;5047398;28;20573;-91
2023/03/09 06:48:55;;;;;;;5.15;3.80;;;;;;;11.41;76.04;100748.84;5048240;28;20033;-92
2023/03/09 06:51:22;;;;;;;4.45;3.42;;;;;;;11.56;75.67;100767.03;5049986;28;20033;-90
2023/03/09 06:53:49;;;;;;;5.03;3.33;;;;;;;11.50;76.01;100762.38;5040498;28;20029;-90
2023/03/09 06:56:31;;;;;;;7.20;3.28;;;;;;;11.53;76.06;100759.00;5049717;28;20041;-92
2023/03/09 06:58:57;;;;;;;4.78;3.67;;;;;;;11.48;75.44;100750.06;5049404;28;20505;-91
2023/03/09 07:01:24;;;;;;;4.95;3.70;;;;;;;11.35;75.98;100723.28;5046373;28;20040;-90
2023/03/09 07:03:50;;;;;;;4.88;3.38;;;;;;;11.45;75.82;100739.44;5042998;28;20549;-90
2023/03/09 07:06:16;;;;;;;6.63;3.45;;;;;;;11.65;75.82;100774.44;5046699;28;20028;-88
2023/03/09 07:08:42;;;;;;;5.68;3.50;;;;;;;11.62;75.79;100772.56;5046448;28;20482;-90
2023/03/09 07:11:09;;;;;;;6.07;4.20;;;;;;;11.24;75.69;100700.97;5039138;28;20034;-89
2023/03/09 07:13:35;;;;;;;5.32;3.70;;;;;;;11.46;75.84;100739.50;5045126;28;20025;-89
2023/03/09 07:16:03;;;;;;;5.50;3.97;;;;;;;11.44;76.12;100754.22;5048226;28;20025;-89
2023/03/09 07:18:33;;;;;;;4.72;3.45;;;;;;;11.57;75.99;100772.31;5047781;28;20056;-88
2023/03/09 07:21:01;;;;;;;4.55;3.50;;;;;;;11.54;75.97;100759.09;5048993;28;20090;-88
2023/03/09 07:23:28;;;;;;;5.30;3.78;;;;;;;11.64;75.93;100770.94;5046576;28;20029;-90
2023/03/09 07:25:53;;;;;;;5.00;3.58;;;;;;;11.65;75.72;100783.16;5030960;28;20498;-90
2023/03/09 07:28:20;;;;;;;5.72;4.15;;;;;;;11.48;75.64;100750.06;5029962;28;20039;-91
2023/03/09 07:30:46;;;;;;;5.95;4.10;;;;;;;11.63;75.71;100778.69;5040736;28;20025;-90
2023/03/09 07:33:11;;;;;;;4.78;3.70;;;;;;;11.66;75.69;100782.34;5043034;28;20040;-92
2023/03/09 07:35:47;;;;;;;6.32;4.20;;;;;;;11.56;75.74;100773.16;5051188;28;20047;-90
2023/03/09 07:38:13;;;;;;;5.80;4.00;;;;;;;11.21;76.17;100711.22;5063048;28;20704;-92
2023/03/09 07:40:41;;;;;;;7.13;4.80;;;;;;;11.63;76.01;100768.22;5049832;28;20370;-92
2023/03/09 07:43:11;;;;;;;6.30;4.40;;;;;;;11.68;75.74;100767.63;5029760;28;20033;-91
2023/03/09 07:45:38;;;;;;;6.00;4.03;;;;;;;11.70;75.71;100778.16;5045206;28;20029;-91
2023/03/09 07:48:04;;;;;;;5.78;3.92;;;;;;;11.47;75.71;100738.72;5042598;28;20483;-90
2023/03/09 07:50:30;;;;;;;5.63;4.00;;;;;;;11.47;75.72;100733.47;5040051;28;20079;-90
2023/03/09 07:52:55;;;;;;;6.40;4.60;;;;;;;11.48;75.66;100735.25;5044369;28;20036;-88
2023/03/09 07:55:23;;;;;;;5.43;4.20;;;;;;;11.57;76.06;100763.56;5040760;28;20499;-87
2023/03/09 07:57:48;;;;;;;7.10;4.00;;;;;;;11.49;75.88;100754.44;5047309;28;20115;-85
2023/03/09 08:00:20;;;;;;;6.45;4.13;;;;;;;11.53;75.65;100736.38;5046092;28;20061;-85
2023/03/09 08:02:46;;;;;;;7.18;4.57;;;;;;;11.69;75.82;100763.31;5036090;28;20542;-85
2023/03/09 08:05:12;;;;;;;7.57;4.80;;;;;;;11.70;75.47;100765.06;5046865;28;20032;-85
2023/03/09 08:07:39;;;;;;;5.95;4.55;;;;;;;11.67;75.83;100765.84;5049132;28;20029;-88
2023/03/09 08:10:07;;;;;;;7.07;4.85;;;;;;;11.48;75.63;100744.81;5063029;28;20083;-91
2023/03/09 08:12:33;;;;;;;7.35;4.63;;;;;;;11.54;75.79;100759.09;5049471;28;20052;-89
2023/03/09 08:15:10;;;;;;;6.13;4.70;;;;;;;11.70;75.75;100768.59;5033469;28;20064;-90
2023/03/09 08:17:35;;;;;;;7.63;4.72;;;;;;;11.71;75.78;100770.41;5046022;28;20029;-88
2023/03/09 08:20:05;;;;;;;6.90;4.82;;;;;;;11.71;75.55;100748.56;5042663;28;20028;-88
2023/03/09 08:22:32;;;;;;;7.72;5.03;;;;;;;11.78;75.24;100768.97;5050284;28;20565;-91
2023/03/09 08:24:58;;;;;;;6.50;4.72;;;;;;;11.50;75.60;100723.16;5048766;28;20025;-91
2023/03/09 08:27:23;;;;;;;7.32;5.18;;;;;;;11.44;75.44;100711.50;5054761;28;20132;-88
2023/03/09 08:29:56;;;;;;;8.40;5.28;;;;;;;11.52;75.36;100720.63;5045149;28;20471;-90
2023/03/09 08:32:25;;;;;;;7.90;5.55;;;;;;;11.77;75.14;100762.84;5052827;28;20123;-90
2023/03/09 08:34:59;;;;;;;6.70;4.88;;;;;;;11.66;75.42;100740.47;5067553;28;20501;-89
2023/03/09 08:37:30;;;;;;;8.18;5.32;;;;;;;11.67;75.33;100730.94;5055142;28;20033;-92
2023/03/09 08:40:04;;;;;;;7.32;5.03;;;;;;;11.78;75.38;100741.09;5055064;28;20413;-92
2023/03/09 08:42:29;;;;;;;7.80;5.10;;;;;;;11.52;75.53;100705.81;5044354;28;20036;-91
2023/03/09 08:44:56;;;;;;;9.10;5.50;;;;;;;11.71;75.69;100738.13;5053694;28;20020;-90
2023/03/09 08:47:22;;;;;;;7.50;5.05;;;;;;;11.72;75.17;100718.97;5054105;28;20036;-90
2023/03/09 08:49:48;;;;;;;7.63;5.32;;;;;;;11.31;75.50;100661.22;5041300;28;20035;-90
2023/03/09 08:52:13;;;;;;;9.23;5.65;;;;;;;11.43;75.16;100689.69;5053972;28;20090;-91
2023/03/09 08:54:39;;;;;;;8.20;5.55;;;;;;;11.12;75.60;100635.00;5053680;28;20024;-90
2023/03/09 08:57:06;;;;;;;7.20;4.90;;;;;;;11.52;75.34;100697.97;5055272;28;20102;-92
2023/03/09 08:59:31;;;;;;;8.13;5.50;;;;;;;11.57;75.45;100711.28;5036294;28;20640;-89
2023/03/09 09:01:58;;;;;;;6.60;5.18;;;;;;;11.46;75.39;100683.72;5049773;28;20051;-91
2023/03/09 09:04:25;;;;;;;8.23;5.78;;;;;;;11.73;75.54;100724.28;5037293;28;20418;-90
2023/03/09 09:06:51;;;;;;;6.13;4.90;;;;;;;11.77;75.37;100733.19;5038574;28;20142;-90
2023/03/09 09:09:17;;;;;;;7.10;5.10;;;;;;;11.58;75.17;100700.91;5037185;28;20017;-89
2023/03/09 09:11:43;;;;;;;7.88;5.55;;;;;;;11.49;75.21;100683.84;5035926;28;20048;-89
2023/03/09 09:14:08;;;;;;;7.10;5.20;;;;;;;11.79;75.48;100731.53;5065703;28;20505;-88
2023/03/09 09:16:34;;;;;;;7.82;5.70;;;;;;;11.74;75.51;100710.38;5047663;28;20052;-91
2023/03/09 09:19:15;;;;;;;8.15;5.28;;;;;;;11.87;75.28;100721.41;5031279;28;20128;-93
2023/03/09 09:21:40;;;;;;;8.82;4.80;;;;;;;11.88;74.81;100725.84;5057036;28;20490;-92
2023/03/09 09:24:07;;;;;;;9.10;5.53;;;;;;;11.87;75.29;100735.41;5057179;28;20036;-92
2023/03/09 09:26:33;;;;;;;6.60;4.65;;;;;;;11.19;75.05;100608.31;5056708;28;20053;-89
2023/03/09 09:29:02;;;;;;;8.43;5.03;;;;;;;11.82;74.78;100705.50;5037724;28;20120;-92
2023/03/09 09:31:28;;;;;;;7.85;4.88;;;;;;;11.18;74.70;100614.41;5056242;28;20029;-91
2023/03/09 09:33:57;;;;;;;8.32;4.53;;;;;;;11.67;74.56;100687.38;5037192;28;20127;-89
2023/03/09 09:36:30;;;;;;;6.55;4.60;;;;;;;11.56;74.95;100655.47;5052361;28;20031;-92
2023/03/09 09:38:57;;;;;;;8.25;4.60;;;;;;;11.61;74.58;100667.03;5053552;28;20522;-92
2023/03/09 09:41:25;;;;;;;7.40;4.78;;;;;;;11.79;74.80;100695.81;5036533;28;20029;-90
2023/03/09 09:43:55;;;;;;;6.90;4.28;;;;;;;11.65;74.99;100661.97;5054512;28;20027;-90
2023/03/09 09:46:22;;;;;;;5.50;3.97;;;;;;;11.57;74.92;100658.97;5053269;28;20025;-91
2023/03/09 09:48:49;;;;;;;5.88;4.28;;;;;;;11.59;74.58;100642.50;5036659;28;20041;-91
2023/03/09 09:51:22;;;;;;;;;;;;;;;11.85;75.22;100696.91;5034665;28;20018;-92
2023/03/09 09:54:06;;;;;;;6.57;4.25;;;;;;;11.75;74.99;100665.09;5046803;28;19967;-91
2023/03/09 09:56:54;;;;;;;6.95;4.25;;;;;;;11.84;75.74;100685.56;5042853;28;20033;-92
2023/03/09 09:59:42;;;;;;;6.55;4.20;;;;;;;11.92;75.10;100680.72;5036005;28;20039;-92
2023/03/09 10:02:08;;;;;;;7.95;4.13;;;;;;;11.91;75.50;100679.81;5052174;28;20033;-92
2023/03/09 10:04:49;;;;;;;6.90;4.10;;;;;;;11.92;75.74;100675.50;5053792;28;20039;-90
2023/03/09 10:07:20;;;;;;;6.97;4.43;;;;;;;11.71;75.37;100623.91;5069020;28;20028;-89
2023/03/09 10:09:51;;;;;;;7.22;4.10;;;;;;;11.97;75.61;100673.97;5039298;28;20115;-91
2023/03/09 10:12:17;;;;;;;5.13;4.00;;;;;;;11.55;75.79;100585.66;5022926;28;20033;-92
2023/03/09 10:14:58;;;;;;;5.00;3.53;;;;;;;12.04;75.83;100656.81;5053032;28;20044;-90
2023/03/09 10:17:47;;;;;;;7.15;3.80;;;;;;;11.83;75.54;100628.78;5045013;28;20048;-91
2023/03/09 10:20:44;;;;;;;4.85;3.63;;;;;;;12.06;76.04;100656.06;5068762;28;20501;-91
2023/03/09 10:23:34;;;;;;;5.63;3.88;;;;;;;12.10;75.85;100657.13;5026194;28;20094;-91
2023/03/09 10:26:23;;;;;;;6.95;3.85;;;;;;;12.10;75.79;100642.31;5032768;28;20077;-91
2023/03/09 10:28:52;;;;;;;4.57;3.75;;;;;;;12.15;76.12;100640.81;5032174;28;20021;-90
2023/03/09 10:31:24;;;;;;;6.47;3.97;;;;;;;11.83;76.22;100579.09;5045660;28;20029;-91
2023/03/09 10:34:10;;;;;;;4.50;3.60;;;;;;;11.88;75.67;100595.03;5052777;28;20025;-90
2023/03/09 10:37:09;;;;;;;5.63;3.80;;;;;;;12.22;76.06;100645.47;5053172;28;20053;-91
2023/03/09 10:39:42;;;;;;;4.53;3.40;;;;;;;11.77;75.68;100564.03;5034381;28;20311;-91
2023/03/09 10:42:25;;;;;;;5.55;3.40;;;;;;;12.06;76.03;100595.88;5035063;28;20398;-90
2023/03/09 10:45:37;;;;;;;4.63;3.20;;;;;;;12.31;76.15;100620.53;5051782;28;20048;-90
2023/03/09 10:48:09;;;;;;;4.40;3.38;;;;;;;12.07;75.65;100571.50;5048946;28;20059;-91
2023/03/09 10:50:59;;;;;;;4.97;3.58;;;;;;;11.82;75.65;100520.66;5052204;28;20021;-91
2023/03/09 10:53:33;;;;;;;4.65;3.55;;;;;;;12.33;76.05;100603.19;5035535;28;20448;-91
2023/03/09 10:56:19;;;;;;;4.05;3.10;;;;;;;12.36;75.15;100603.28;5052075;28;20097;-92
2023/03/09 10:58:45;;;;;;;4.80;2.88;;;;;;;12.17;75.49;100559.69;5035125;28;20028;-92
2023/03/09 11:01:20;;;;;;;4.07;2.97;;;;;;;12.28;75.24;100573.28;5051807;28;20063;-91
2023/03/09 11:03:47;;;;;;;5.72;3.20;;;;;;;12.06;75.55;100526.94;5051402;28;20120;-91
2023/03/09 11:06:24;;;;;;;4.60;3.20;;;;;;;12.09;75.90;100525.34;5051986;28;20025;-92
2023/03/09 11:09:04;;;;;;;4.78;3.35;;;;;;;12.30;75.48;100556.81;5034812;28;20017;-89
2023/03/09 11:11:30;;;;;;;4.47;3.35;;;;;;;12.48;76.11;100567.16;5043568;28;20037;-90
2023/03/09 11:13:57;;;;;;;6.10;3.05;;;;;;;12.34;76.18;100540.41;5049782;28;20532;-90
2023/03/09 11:16:35;;;;;;;3.67;3.15;;;;;;;12.61;76.17;100579.06;5021131;28;20033;-90
2023/03/09 11:19:11;;;;;;;5.47;3.30;;;;;;;12.61;75.99;100563.34;5030608;28;20120;-90
2023/03/09 11:22:01;;;;;;;4.20;3.28;;;;;;;12.52;76.30;100542.03;5054782;28;20025;-92
2023/03/09 11:24:45;;;;;;;4.13;2.80;;;;;;;12.51;76.39;100534.97;5054748;28;20041;-92
2023/03/09 11:27:31;;;;;;;5.32;3.20;;;;;;;12.63;76.90;100556.44;5051948;28;20056;-89
2023/03/09 11:30:11;;;;;;;3.78;3.00;;;;;;;12.14;76.34;100450.53;5029953;28;20072;-91
2023/03/09 11:32:52;;;;;;;4.53;3.08;;;;;;;12.22;76.06;100461.34;5041846;28;20406;-89